createdAt,value
2023-06-10T00:01:59.265Z,17.30
2023-06-10T00:06:43.078Z,17.30
2023-06-10T00:11:30.079Z,17.30
2023-06-10T00:16:20.474Z,17.40
2023-06-10T00:21:23.374Z,17.40
2023-06-10T00:26:09.975Z,17.40
2023-06-10T00:30:59.298Z,17.30
2023-06-10T00:35:45.920Z,17.20
2023-06-10T00:40:33.337Z,17.00
2023-06-10T00:45:41.894Z,16.80
2023-06-10T00:50:25.375Z,16.50
2023-06-10T00:55:14.520Z,16.60
2023-06-10T01:00:04.306Z,16.60
2023-06-10T01:04:50.753Z,16.40
2023-06-10T01:09:51.449Z,16.20
2023-06-10T01:14:46.327Z,15.90
2023-06-10T01:19:33.299Z,15.60
2023-06-10T01:24:19.470Z,15.40
2023-06-10T01:29:09.828Z,15.20
2023-06-10T01:33:55.322Z,15.00
2023-06-10T01:38:45.320Z,14.80
2023-06-10T01:43:35.386Z,14.60
2023-06-10T01:48:19.609Z,14.50
2023-06-10T01:53:06.337Z,14.40
2023-06-10T01:57:56.071Z,14.30
2023-06-10T02:02:41.649Z,14.30
2023-06-10T02:07:30.449Z,14.30
2023-06-10T02:12:22.947Z,14.20
2023-06-10T02:17:07.117Z,14.10
2023-06-10T02:21:55.807Z,14.00
2023-06-10T02:26:39.539Z,13.80
2023-06-10T02:31:32.861Z,13.70
2023-06-10T02:36:17.202Z,13.60
2023-06-10T02:41:07.120Z,13.60
2023-06-10T02:45:54.468Z,13.40
2023-06-10T02:50:42.327Z,13.30
2023-06-10T02:55:34.544Z,13.30
2023-06-10T03:00:37.029Z,13.20
2023-06-10T03:05:21.567Z,13.20
2023-06-10T03:10:26.726Z,13.20
2023-06-10T03:15:29.946Z,13.20
2023-06-10T03:20:19.226Z,13.20
2023-06-10T03:30:27.593Z,13.40
2023-06-10T03:35:20.117Z,13.60
2023-06-10T03:40:38.200Z,13.70
2023-06-10T03:45:24.524Z,13.80
2023-06-10T03:50:12.984Z,14.00
2023-06-10T03:55:01.957Z,14.30
2023-06-10T03:59:48.632Z,15.50
2023-06-10T04:04:35.430Z,16.70
2023-06-10T04:09:23.400Z,17.30
2023-06-10T04:14:14.332Z,17.40
2023-06-10T04:19:18.138Z,17.30
2023-06-10T04:24:05.746Z,17.20
2023-06-10T04:28:54.078Z,17.20
2023-06-10T04:34:27.425Z,17.30
2023-06-10T04:39:17.965Z,17.50
2023-06-10T04:44:03.666Z,17.80
2023-06-10T04:48:51.528Z,18.20
2023-06-10T04:53:40.789Z,18.40
2023-06-10T04:58:44.096Z,18.50
2023-06-10T05:03:31.211Z,18.80
2023-06-10T05:08:21.458Z,19.10
2023-06-10T05:13:06.669Z,19.40
2023-06-10T05:17:59.594Z,19.60
2023-06-10T05:22:43.604Z,19.90
2023-06-10T05:27:33.334Z,20.20
2023-06-10T05:32:18.997Z,20.50
2023-06-10T05:37:11.613Z,20.80
2023-06-10T05:41:55.336Z,20.90
2023-06-10T05:46:48.326Z,20.50
2023-06-10T05:51:32.126Z,20.00
2023-06-10T05:56:19.865Z,20.10
2023-06-10T06:01:09.464Z,20.70
2023-06-10T06:05:56.001Z,21.00
2023-06-10T06:10:44.742Z,21.70
2023-06-10T06:15:32.969Z,21.80
2023-06-10T06:20:20.337Z,22.40
2023-06-10T06:25:06.779Z,22.60
2023-06-10T06:29:59.385Z,23.00
2023-06-10T06:34:45.216Z,23.50
2023-06-10T06:39:30.409Z,23.60
2023-06-10T06:44:19.089Z,24.10
2023-06-10T06:49:08.842Z,24.30
2023-06-10T06:54:00.075Z,24.50
2023-06-10T06:58:44.071Z,24.70
2023-06-10T07:03:30.285Z,25.00
2023-06-10T07:08:22.542Z,24.70
2023-06-10T07:13:08.199Z,24.20
2023-06-10T07:17:56.683Z,24.00
2023-06-10T07:22:45.035Z,24.00
2023-06-10T07:27:31.448Z,24.20
2023-06-10T07:32:33.437Z,24.00
2023-06-10T07:37:20.900Z,23.50
2023-06-10T07:42:11.484Z,23.80
2023-06-10T07:46:59.049Z,24.00
2023-06-10T07:51:48.896Z,23.90
2023-06-10T07:56:38.218Z,23.90
2023-06-10T08:01:25.815Z,23.70
2023-06-10T08:06:13.224Z,23.70
2023-06-10T08:11:21.914Z,23.60
2023-06-10T08:16:06.285Z,23.70
2023-06-10T08:20:52.461Z,23.90
2023-06-10T08:25:39.452Z,24.00
2023-06-10T08:30:50.490Z,24.40
2023-06-10T08:35:48.748Z,25.40
2023-06-10T08:40:53.607Z,24.80
2023-06-10T08:45:45.001Z,24.60
2023-06-10T08:50:49.256Z,25.30
2023-06-10T08:55:38.080Z,25.80
2023-06-10T09:00:22.309Z,26.40
2023-06-10T09:05:09.733Z,26.10
2023-06-10T09:10:10.847Z,26.50
2023-06-10T09:15:47.263Z,25.90
2023-06-10T09:20:50.388Z,26.80
2023-06-10T09:25:42.742Z,26.40
2023-06-10T09:30:30.845Z,26.30
2023-06-10T09:35:16.807Z,25.90
2023-06-10T09:40:06.324Z,26.10
2023-06-10T09:44:55.771Z,26.30
2023-06-10T09:49:43.729Z,26.10
2023-06-10T09:54:42.758Z,26.10
2023-06-10T09:59:35.755Z,26.30
2023-06-10T10:04:35.072Z,26.60
2023-06-10T10:09:24.386Z,26.90
2023-06-10T10:14:30.051Z,26.80
2023-06-10T10:19:22.369Z,26.70
2023-06-10T10:24:19.211Z,26.60
2023-06-10T10:29:13.410Z,26.70
2023-06-10T10:34:01.075Z,26.90
2023-06-10T10:38:45.636Z,27.20
2023-06-10T10:43:34.802Z,26.80
2023-06-10T10:48:22.321Z,25.90
2023-06-10T10:53:08.789Z,26.40
2023-06-10T10:57:58.526Z,27.20
2023-06-10T11:02:49.987Z,28.90
2023-06-10T11:07:34.530Z,30.10
2023-06-10T11:12:25.997Z,30.40
2023-06-10T11:17:23.543Z,30.80
2023-06-10T11:22:33.470Z,31.40
2023-06-10T11:27:54.223Z,30.60
2023-06-10T11:32:37.925Z,31.60
2023-06-10T11:37:22.017Z,31.10
2023-06-10T11:42:15.338Z,31.40
2023-06-10T11:47:01.937Z,31.70
2023-06-10T11:51:52.976Z,30.60
2023-06-10T11:56:36.845Z,29.60
2023-06-10T12:01:29.723Z,28.80
2023-06-10T12:06:13.883Z,28.20
2023-06-10T12:11:00.977Z,28.40
2023-06-10T12:16:04.800Z,29.10
2023-06-10T12:21:26.081Z,29.80
2023-06-10T12:26:12.537Z,30.30
2023-06-10T12:31:19.829Z,30.50
2023-06-10T12:36:06.800Z,30.30
2023-06-10T12:40:51.854Z,30.60
2023-06-10T12:45:46.025Z,30.50
2023-06-10T12:50:32.756Z,30.50
2023-06-10T12:55:21.517Z,31.00
2023-06-10T13:00:09.973Z,30.50
2023-06-10T13:04:55.224Z,30.00
2023-06-10T13:09:39.732Z,29.80
2023-06-10T13:14:32.560Z,29.70
2023-06-10T13:19:18.081Z,29.30
2023-06-10T13:24:05.190Z,29.00
2023-06-10T13:28:55.110Z,28.20
2023-06-10T13:33:43.304Z,28.50
2023-06-10T13:38:27.959Z,29.20
2023-06-10T13:43:21.138Z,29.10
2023-06-10T13:48:06.924Z,28.80
2023-06-10T13:52:52.392Z,28.50
2023-06-10T13:57:42.229Z,28.90
2023-06-10T14:02:30.265Z,29.40
2023-06-10T14:07:13.987Z,29.40
2023-06-10T14:12:07.259Z,29.40
2023-06-10T14:16:52.856Z,29.10
2023-06-10T14:21:42.054Z,29.30
2023-06-10T14:26:31.228Z,29.20
2023-06-10T14:31:18.198Z,29.30
2023-06-10T14:36:04.824Z,29.10
2023-06-10T14:40:54.575Z,29.20
2023-06-10T14:45:41.285Z,29.60
2023-06-10T14:50:31.779Z,29.80
2023-06-10T14:55:17.214Z,29.70
2023-06-10T15:00:05.194Z,29.50
2023-06-10T15:04:51.083Z,29.60
2023-06-10T15:09:58.340Z,29.70
2023-06-10T15:14:58.383Z,29.40
2023-06-10T15:19:47.991Z,29.20
2023-06-10T15:24:35.816Z,28.90
2023-06-10T15:29:23.895Z,29.20
2023-06-10T15:34:13.441Z,28.90
2023-06-10T15:39:04.680Z,29.10
2023-06-10T15:43:50.081Z,29.30
2023-06-10T15:48:39.018Z,29.50
2023-06-10T15:53:24.950Z,29.50
2023-06-10T15:58:14.619Z,28.70
2023-06-10T16:03:01.516Z,28.20
2023-06-10T16:07:49.312Z,28.20
2023-06-10T16:12:37.658Z,28.40
2023-06-10T16:17:26.061Z,28.30
2023-06-10T16:22:15.468Z,28.20
2023-06-10T16:27:36.342Z,28.10
2023-06-10T16:32:22.764Z,28.00
2023-06-10T16:37:11.564Z,28.20
2023-06-10T16:41:55.379Z,27.90
2023-06-10T16:46:43.520Z,27.40
2023-06-10T16:51:45.135Z,27.00
2023-06-10T16:56:39.775Z,26.70
2023-06-10T17:01:27.364Z,26.20
2023-06-10T17:06:16.094Z,26.10
2023-06-10T17:10:59.641Z,25.70
2023-06-10T17:15:50.199Z,25.40
2023-06-10T17:20:37.255Z,25.10
2023-06-10T17:25:24.707Z,24.80
2023-06-10T17:30:12.346Z,24.60
2023-06-10T17:35:04.567Z,24.30
2023-06-10T17:39:51.288Z,24.10
2023-06-10T17:44:39.724Z,23.80
2023-06-10T17:49:28.925Z,23.40
2023-06-10T17:54:33.899Z,23.20
2023-06-10T17:59:17.646Z,23.00
2023-06-10T18:04:37.008Z,22.80
2023-06-10T18:09:28.454Z,22.40
2023-06-10T18:14:12.929Z,22.20
2023-06-10T18:19:14.119Z,22.00
2023-06-10T18:24:08.113Z,21.90
2023-06-10T18:28:53.087Z,21.80
2023-06-10T18:33:42.275Z,21.70
2023-06-10T18:38:30.169Z,21.50
2023-06-10T18:43:19.083Z,21.40
2023-06-10T18:48:05.561Z,21.00
2023-06-10T18:52:53.291Z,20.70
2023-06-10T18:57:40.629Z,20.40
2023-06-10T19:02:29.848Z,20.00
2023-06-10T19:07:20.671Z,19.60
2023-06-10T19:12:07.132Z,19.20
2023-06-10T19:16:54.398Z,19.00
2023-06-10T19:21:41.230Z,18.80
2023-06-10T19:26:28.849Z,18.50
2023-06-10T19:31:16.834Z,18.40
2023-06-10T19:36:06.473Z,18.20
2023-06-10T19:40:56.395Z,18.10
2023-06-10T19:45:40.006Z,17.90
2023-06-10T19:50:50.347Z,17.90
2023-06-10T19:55:37.502Z,17.90
2023-06-10T20:06:11.234Z,18.00
2023-06-10T20:12:05.122Z,18.00
2023-06-10T20:17:14.212Z,17.70
2023-06-10T20:21:57.839Z,17.60
2023-06-10T20:26:43.320Z,17.50
2023-06-10T20:31:32.313Z,17.30
2023-06-10T20:36:21.207Z,17.30
2023-06-10T20:41:09.464Z,17.30
2023-06-10T20:45:59.196Z,17.20
2023-06-10T20:50:45.681Z,17.00
2023-06-10T20:55:49.415Z,16.80
2023-06-10T21:00:39.023Z,16.60
2023-06-10T21:05:24.754Z,16.40
2023-06-10T21:10:14.898Z,16.30
2023-06-10T21:15:01.642Z,16.20
2023-06-10T21:19:49.076Z,16.20
2023-06-10T21:24:36.397Z,16.40
2023-06-10T21:29:26.318Z,16.60
2023-06-10T21:34:12.349Z,17.00
2023-06-10T21:39:02.152Z,17.10
2023-06-10T21:43:49.509Z,17.40
2023-06-10T21:48:38.490Z,17.60
2023-06-10T21:53:24.693Z,17.80
2023-06-10T21:58:31.626Z,17.70
2023-06-10T22:03:15.639Z,17.70
2023-06-10T22:08:07.823Z,17.60
2023-06-10T22:12:58.933Z,17.60
2023-06-10T22:18:02.826Z,17.60
2023-06-10T22:22:46.599Z,17.60
2023-06-10T22:27:33.425Z,17.50
2023-06-10T22:32:39.753Z,17.30
2023-06-10T22:37:23.619Z,17.00
2023-06-10T22:42:16.874Z,16.60
2023-06-10T22:47:00.595Z,16.30
2023-06-10T22:52:03.383Z,16.30
2023-06-10T22:56:56.430Z,16.60
2023-06-10T23:01:40.096Z,16.60
2023-06-10T23:06:49.968Z,16.50
2023-06-10T23:11:36.163Z,16.10
2023-06-10T23:16:20.627Z,15.90
2023-06-10T23:21:09.973Z,15.70
2023-06-10T23:26:01.430Z,15.50
2023-06-10T23:30:46.904Z,15.30
2023-06-10T23:35:32.349Z,15.10
2023-06-10T23:40:26.408Z,15.00
2023-06-10T23:45:12.388Z,14.80
2023-06-10T23:49:58.211Z,14.80
2023-06-10T23:54:46.981Z,14.80
2023-06-10T23:59:33.876Z,14.90
